Duchess, Canada
Current Conditions -  °F | °C
As of 8:00 PM on Friday 19 Dec 2014 (Local Time) from CYXH Reporting Station
Overcast Overcast  
Wind Chill: 29°   Ceiling: 21000
Heat Index: 37°   Visibility: 15mi
Dew Point: 32°   Wind: 14mph
Humidity: 81%   Direction: 200°SSW
Pressure: 29.7"   Gusts: NA
Location:  50.73°N, 111.9°W
Report Text: CYXH 200300Z 20012KT 15SM SCT120 OVC210 03/00 A2970 RMK AC3CI5 LAST STFD OBS/NEXT 201300Z SLP088
Loading
Personal Weather Stations






























Interactive Weather Map New forecast layout! Learn more

10-Day Weather Forecast

Advertisements
Track Severe Weather on mobile